createdAt,value
2017-06-22T00:00:21.657Z,11.30
2017-06-22T00:02:49.753Z,9.00
2017-06-22T00:05:18.171Z,10.40
2017-06-22T00:07:46.649Z,8.97
2017-06-22T00:10:15.158Z,10.17
2017-06-22T00:12:44.073Z,10.03
2017-06-22T00:15:13.510Z,9.10
2017-06-22T00:17:42.017Z,10.03
2017-06-22T00:20:10.115Z,9.37
2017-06-22T00:22:39.495Z,8.77
2017-06-22T00:25:07.899Z,9.63
2017-06-22T00:27:36.183Z,9.20
2017-06-22T00:30:05.322Z,9.33
2017-06-22T00:32:33.745Z,10.27
2017-06-22T00:35:02.109Z,10.57
2017-06-22T00:37:30.901Z,9.43
2017-06-22T00:39:58.878Z,11.00
2017-06-22T00:42:28.179Z,9.00
2017-06-22T00:44:56.994Z,10.10
2017-06-22T00:47:25.157Z,9.40
2017-06-22T00:49:54.128Z,9.27
2017-06-22T00:52:22.203Z,9.23
2017-06-22T00:54:50.813Z,9.87
2017-06-22T00:57:19.727Z,10.23
2017-06-22T00:59:48.708Z,10.13
2017-06-22T01:02:16.983Z,9.50
2017-06-22T01:04:45.288Z,10.40
2017-06-22T01:07:13.765Z,9.87
2017-06-22T01:09:42.305Z,9.37
2017-06-22T01:12:11.326Z,11.67
2017-06-22T01:14:40.152Z,9.30
2017-06-22T01:17:08.237Z,10.40
2017-06-22T01:19:37.008Z,10.90
2017-06-22T01:22:05.408Z,9.77
2017-06-22T01:24:33.969Z,10.10
2017-06-22T01:27:02.322Z,10.13
2017-06-22T01:29:30.905Z,9.70
2017-06-22T01:31:59.733Z,8.77
2017-06-22T01:34:28.218Z,10.47
2017-06-22T01:36:57.122Z,9.90
2017-06-22T01:39:25.842Z,11.03
2017-06-22T01:41:54.693Z,12.60
2017-06-22T01:44:23.078Z,9.83
2017-06-22T01:46:51.521Z,9.70
2017-06-22T01:49:19.963Z,9.60
2017-06-22T01:51:49.027Z,10.40
2017-06-22T01:54:17.874Z,10.60
2017-06-22T01:56:46.134Z,10.33
2017-06-22T01:59:14.501Z,9.07
2017-06-22T02:01:43.268Z,9.90
2017-06-22T02:04:11.689Z,9.77
2017-06-22T02:06:41.393Z,10.13
2017-06-22T02:09:10.387Z,8.60
2017-06-22T02:11:38.669Z,11.60
2017-06-22T02:14:06.335Z,8.97
2017-06-22T02:16:34.749Z,9.70
2017-06-22T02:19:04.032Z,9.60
2017-06-22T02:21:32.152Z,9.40
2017-06-22T02:24:00.246Z,8.53
2017-06-22T02:26:29.071Z,8.73
2017-06-22T02:28:58.651Z,9.53
2017-06-22T02:31:27.506Z,10.20
2017-06-22T02:33:56.363Z,10.10
2017-06-22T02:36:25.002Z,11.67
2017-06-22T02:38:53.961Z,9.77
2017-06-22T02:41:22.736Z,10.07
2017-06-22T02:43:50.749Z,13.70
2017-06-22T02:46:18.857Z,11.27
2017-06-22T02:48:47.987Z,10.27
2017-06-22T02:51:16.450Z,9.43
2017-06-22T02:53:45.162Z,9.97
2017-06-22T02:56:13.512Z,10.40
2017-06-22T02:58:42.584Z,9.67
2017-06-22T03:01:11.142Z,9.43
2017-06-22T03:03:40.083Z,10.30
2017-06-22T03:06:08.257Z,11.23
2017-06-22T03:08:36.746Z,9.37
2017-06-22T03:11:05.597Z,9.60
2017-06-22T03:13:34.254Z,10.47
2017-06-22T03:16:03.462Z,11.10
2017-06-22T03:18:32.532Z,10.50
2017-06-22T03:21:00.678Z,10.30
2017-06-22T03:23:29.302Z,10.40
2017-06-22T03:25:59.178Z,11.53
2017-06-22T03:28:27.490Z,9.80
2017-06-22T03:30:56.388Z,13.20
2017-06-22T03:33:25.107Z,14.00
2017-06-22T03:35:54.293Z,11.27
2017-06-22T03:38:22.911Z,10.13
2017-06-22T03:40:51.439Z,10.83
2017-06-22T03:43:19.823Z,11.13
2017-06-22T03:45:48.140Z,10.40
2017-06-22T03:48:16.780Z,10.00
2017-06-22T03:50:45.460Z,9.67
2017-06-22T03:53:13.911Z,10.10
2017-06-22T03:55:42.418Z,12.40
2017-06-22T03:58:10.952Z,11.20
2017-06-22T04:00:39.707Z,11.47
2017-06-22T04:03:08.266Z,11.33
2017-06-22T04:05:37.823Z,10.63
2017-06-22T04:08:05.577Z,10.83
2017-06-22T04:10:33.540Z,12.07
2017-06-22T04:13:02.067Z,10.33
2017-06-22T04:15:30.423Z,10.33
2017-06-22T04:17:59.342Z,10.40
2017-06-22T04:20:27.883Z,10.73
2017-06-22T04:22:55.834Z,9.67
2017-06-22T04:25:24.845Z,11.20
2017-06-22T04:27:54.089Z,10.30
2017-06-22T04:30:22.484Z,12.33
2017-06-22T04:32:51.156Z,13.23
2017-06-22T04:35:19.669Z,11.10
2017-06-22T04:37:48.980Z,13.47
2017-06-22T04:40:18.088Z,10.97
2017-06-22T04:42:46.921Z,11.30
2017-06-22T04:45:15.147Z,13.13
2017-06-22T04:47:44.513Z,14.30
2017-06-22T04:50:14.693Z,13.13
2017-06-22T04:52:44.437Z,11.40
2017-06-22T04:55:14.487Z,12.90
2017-06-22T04:57:44.024Z,12.50
2017-06-22T05:00:13.124Z,12.27
2017-06-22T05:02:42.997Z,11.87
2017-06-22T05:05:12.851Z,11.23
2017-06-22T05:07:43.222Z,12.43
2017-06-22T05:10:13.144Z,13.17
2017-06-22T05:12:42.522Z,13.10
2017-06-22T05:15:11.874Z,14.57
2017-06-22T05:17:41.010Z,15.13
2017-06-22T05:20:10.892Z,14.83
2017-06-22T05:22:40.982Z,13.83
2017-06-22T05:25:10.879Z,11.10
2017-06-22T05:27:40.930Z,12.77
2017-06-22T05:30:10.814Z,11.90
2017-06-22T05:32:40.648Z,14.57
2017-06-22T05:35:10.868Z,12.23
2017-06-22T05:37:41.043Z,13.63
2017-06-22T05:40:11.482Z,11.33
2017-06-22T05:42:41.206Z,12.10
2017-06-22T05:45:11.278Z,16.43
2017-06-22T05:47:41.023Z,12.40
2017-06-22T05:50:11.498Z,12.20
2017-06-22T05:52:41.187Z,11.90
2017-06-22T05:55:10.876Z,14.40
2017-06-22T05:57:40.482Z,12.67
2017-06-22T06:00:10.567Z,13.70
2017-06-22T06:02:40.485Z,12.80
2017-06-22T06:05:10.990Z,11.83
2017-06-22T06:07:40.894Z,13.27
2017-06-22T06:10:11.460Z,11.70
2017-06-22T06:12:41.224Z,12.57
2017-06-22T06:15:11.165Z,13.00
2017-06-22T06:17:40.647Z,13.47
2017-06-22T06:20:10.132Z,14.70
2017-06-22T06:22:39.470Z,13.67
2017-06-22T06:25:09.472Z,14.43
2017-06-22T06:27:39.777Z,14.57
2017-06-22T06:30:09.860Z,13.60
2017-06-22T06:32:39.870Z,17.83
2017-06-22T06:35:09.334Z,14.37
2017-06-22T06:37:39.162Z,16.20
2017-06-22T06:40:08.582Z,15.40
2017-06-22T06:42:39.226Z,20.50
2017-06-22T06:45:08.936Z,15.43
2017-06-22T06:47:39.467Z,14.73
2017-06-22T06:50:10.000Z,14.30
2017-06-22T06:52:40.525Z,15.70
2017-06-22T06:55:10.147Z,14.60
2017-06-22T06:57:41.545Z,14.37
2017-06-22T07:00:10.938Z,13.83
2017-06-22T07:02:41.336Z,14.83
2017-06-22T07:05:10.634Z,14.60
2017-06-22T07:07:39.606Z,14.07
2017-06-22T07:10:08.237Z,15.30
2017-06-22T07:12:37.720Z,15.47
2017-06-22T07:15:07.108Z,15.07
2017-06-22T07:17:37.046Z,15.40
2017-06-22T07:20:06.819Z,15.90
2017-06-22T07:22:36.956Z,16.93
2017-06-22T07:25:06.655Z,19.20
2017-06-22T07:27:36.283Z,14.47
2017-06-22T07:30:06.840Z,16.60
2017-06-22T07:32:36.597Z,15.90
2017-06-22T07:35:07.117Z,16.13
2017-06-22T07:37:36.785Z,16.20
2017-06-22T07:40:06.724Z,16.93
2017-06-22T07:42:36.065Z,15.67
2017-06-22T07:45:05.786Z,16.13
2017-06-22T07:47:34.612Z,17.30
2017-06-22T07:50:02.934Z,15.40
2017-06-22T07:52:33.246Z,14.70
2017-06-22T07:55:02.594Z,15.67
2017-06-22T07:57:32.135Z,15.30
2017-06-22T08:00:00.898Z,14.80
2017-06-22T08:02:31.330Z,17.03
2017-06-22T08:05:00.683Z,15.73
2017-06-22T08:07:30.198Z,15.20
2017-06-22T08:10:00.006Z,16.93
2017-06-22T08:12:29.913Z,15.80
2017-06-22T08:14:58.708Z,15.93
2017-06-22T08:17:27.204Z,15.03
2017-06-22T08:19:56.266Z,14.43
2017-06-22T08:22:24.982Z,16.67
2017-06-22T08:24:54.360Z,14.67
2017-06-22T08:27:26.083Z,16.70
2017-06-22T08:29:55.586Z,15.23
2017-06-22T08:32:26.100Z,14.83
2017-06-22T08:34:54.875Z,15.77
2017-06-22T08:37:24.111Z,15.13
2017-06-22T08:39:54.317Z,15.63
2017-06-22T08:42:23.511Z,15.50
2017-06-22T08:44:53.233Z,15.50
2017-06-22T08:47:22.662Z,14.77
2017-06-22T08:49:52.080Z,15.37
2017-06-22T08:52:20.796Z,14.80
2017-06-22T08:54:50.247Z,15.60
2017-06-22T08:57:19.308Z,15.60
2017-06-22T08:59:48.253Z,14.90
2017-06-22T09:02:17.166Z,15.00
2017-06-22T09:04:46.363Z,15.30
2017-06-22T09:07:15.619Z,14.30
2017-06-22T09:09:44.223Z,13.80
2017-06-22T09:12:12.891Z,13.93
2017-06-22T09:14:42.434Z,14.13
2017-06-22T09:17:11.817Z,14.93
2017-06-22T09:19:40.773Z,16.27
2017-06-22T09:22:10.005Z,15.23
2017-06-22T09:24:38.768Z,15.93
2017-06-22T09:27:06.985Z,15.53
2017-06-22T09:29:35.543Z,16.20
2017-06-22T09:32:04.292Z,14.17
2017-06-22T09:34:32.535Z,14.30
2017-06-22T09:37:02.263Z,15.53
2017-06-22T09:39:31.075Z,18.00
2017-06-22T09:42:00.237Z,15.03
2017-06-22T09:44:28.829Z,14.87
2017-06-22T09:46:57.633Z,16.37
2017-06-22T09:49:26.487Z,15.90
2017-06-22T09:51:56.510Z,16.67
2017-06-22T09:54:25.776Z,16.10
2017-06-22T09:56:54.402Z,15.10
2017-06-22T09:59:23.584Z,14.57
2017-06-22T10:01:52.491Z,15.60
2017-06-22T10:04:21.715Z,17.07
2017-06-22T10:06:50.468Z,16.20
2017-06-22T10:09:19.015Z,15.57
2017-06-22T10:11:47.635Z,16.03
2017-06-22T10:14:16.522Z,15.73
2017-06-22T10:16:45.220Z,16.40
2017-06-22T10:19:13.848Z,16.37
2017-06-22T10:21:43.223Z,15.47
2017-06-22T10:24:12.271Z,16.63
2017-06-22T10:26:41.201Z,16.50
2017-06-22T10:29:10.894Z,16.30
2017-06-22T10:31:41.099Z,16.30
2017-06-22T10:34:10.156Z,16.03
2017-06-22T10:36:39.003Z,16.43
2017-06-22T10:39:08.012Z,17.67
2017-06-22T10:41:37.120Z,18.23
2017-06-22T10:44:05.878Z,17.80
2017-06-22T10:46:34.716Z,17.93
2017-06-22T10:49:03.561Z,15.73
2017-06-22T10:51:32.216Z,16.13
2017-06-22T10:54:01.597Z,15.70
2017-06-22T10:56:30.161Z,15.37
2017-06-22T10:58:58.739Z,17.03
2017-06-22T11:01:27.735Z,16.70
2017-06-22T11:03:57.145Z,17.47
2017-06-22T11:06:25.730Z,16.80
2017-06-22T11:08:54.278Z,15.97
2017-06-22T11:11:22.987Z,15.60
2017-06-22T11:13:52.352Z,21.10
2017-06-22T11:16:21.337Z,15.23
2017-06-22T11:18:50.405Z,17.37
2017-06-22T11:21:19.424Z,16.80
2017-06-22T11:23:48.714Z,13.53
2017-06-22T11:26:17.611Z,14.50
2017-06-22T11:28:45.903Z,11.93
2017-06-22T11:31:14.983Z,11.90
2017-06-22T11:33:44.032Z,9.97
2017-06-22T11:36:13.565Z,10.10
2017-06-22T11:38:42.459Z,11.23
2017-06-22T11:41:11.235Z,11.17
2017-06-22T11:43:39.802Z,11.03
2017-06-22T11:46:07.950Z,10.03
2017-06-22T11:48:36.430Z,10.73
2017-06-22T11:51:05.017Z,10.30
2017-06-22T11:53:33.547Z,10.53
2017-06-22T11:56:02.327Z,10.93
2017-06-22T11:58:31.518Z,11.03
2017-06-22T12:00:59.883Z,10.10
2017-06-22T12:03:28.310Z,12.00
2017-06-22T12:05:56.785Z,9.80
2017-06-22T12:08:25.163Z,11.73
2017-06-22T12:10:54.200Z,10.00
2017-06-22T12:13:23.488Z,9.03
2017-06-22T12:15:52.358Z,10.57
2017-06-22T12:18:21.002Z,10.80
2017-06-22T12:20:50.483Z,10.47
2017-06-22T12:23:19.305Z,13.43
2017-06-22T12:25:48.232Z,11.43
2017-06-22T12:28:16.527Z,10.50
2017-06-22T12:30:45.950Z,11.17
2017-06-22T12:33:14.483Z,11.17
2017-06-22T12:35:43.035Z,12.27
2017-06-22T12:38:11.655Z,13.23
2017-06-22T12:40:40.633Z,12.83
2017-06-22T12:43:09.619Z,14.70
2017-06-22T12:45:38.849Z,16.47
2017-06-22T12:48:07.127Z,15.37
2017-06-22T12:50:35.675Z,16.87
2017-06-22T12:53:04.901Z,16.53
2017-06-22T12:55:33.947Z,13.83
2017-06-22T12:58:03.323Z,13.50
2017-06-22T13:00:32.227Z,14.23
2017-06-22T13:03:00.616Z,15.37
2017-06-22T13:05:29.763Z,12.13
2017-06-22T13:07:59.054Z,12.53
2017-06-22T13:10:28.359Z,13.83
2017-06-22T13:12:56.930Z,13.93
2017-06-22T13:15:26.209Z,13.13
2017-06-22T13:17:55.032Z,13.50
2017-06-22T13:20:23.642Z,13.73
2017-06-22T13:22:52.711Z,14.30
2017-06-22T13:25:21.761Z,14.50
2017-06-22T13:27:50.826Z,14.23
2017-06-22T13:30:19.704Z,12.70
2017-06-22T13:32:48.818Z,12.90
2017-06-22T13:35:17.718Z,15.20
2017-06-22T13:37:46.545Z,13.43
2017-06-22T13:40:16.043Z,12.00
2017-06-22T13:42:45.383Z,12.30
2017-06-22T13:45:14.189Z,12.50
2017-06-22T13:47:42.684Z,14.87
2017-06-22T13:50:11.373Z,12.20
2017-06-22T13:52:40.078Z,13.37
2017-06-22T13:55:08.866Z,12.60
2017-06-22T13:57:38.036Z,15.00
2017-06-22T14:00:07.143Z,15.40
2017-06-22T14:02:36.194Z,18.40
2017-06-22T14:05:05.081Z,15.17
2017-06-22T14:07:34.903Z,17.53
2017-06-22T14:10:04.178Z,21.27
2017-06-22T14:12:34.578Z,20.20
2017-06-22T14:15:04.267Z,10.70
2017-06-22T14:17:34.808Z,10.20
2017-06-22T14:20:05.018Z,9.87
2017-06-22T14:22:35.925Z,8.80
2017-06-22T14:25:06.214Z,8.27
2017-06-22T14:27:36.265Z,11.03
2017-06-22T14:30:07.197Z,7.47
2017-06-22T14:32:37.514Z,8.37
2017-06-22T14:35:06.838Z,8.53
2017-06-22T14:37:37.841Z,9.23
2017-06-22T14:40:07.271Z,9.33
2017-06-22T14:42:36.766Z,8.27
2017-06-22T14:45:07.749Z,9.57
2017-06-22T14:47:38.393Z,7.80
2017-06-22T14:50:08.634Z,8.90
2017-06-22T14:52:38.575Z,8.33
2017-06-22T14:55:08.954Z,10.37
2017-06-22T14:57:38.790Z,8.70
2017-06-22T15:00:07.533Z,8.73
2017-06-22T15:02:37.557Z,9.63
2017-06-22T15:05:07.283Z,9.40
2017-06-22T15:07:37.832Z,9.70
2017-06-22T15:10:08.262Z,12.70
2017-06-22T15:12:37.663Z,9.33
2017-06-22T15:15:07.848Z,10.97
2017-06-22T15:17:37.614Z,13.37
2017-06-22T15:20:06.407Z,10.30
2017-06-22T15:22:37.161Z,10.13
2017-06-22T15:25:06.922Z,12.10
2017-06-22T15:27:37.161Z,13.50
2017-06-22T15:30:07.890Z,12.33
2017-06-22T15:32:37.667Z,11.47
2017-06-22T15:35:07.115Z,12.57
2017-06-22T15:37:36.727Z,12.43
2017-06-22T15:40:05.693Z,11.90
2017-06-22T15:42:35.264Z,12.03
2017-06-22T15:45:05.136Z,15.30
2017-06-22T15:47:35.450Z,13.50
2017-06-22T15:50:05.012Z,11.83
2017-06-22T15:52:34.881Z,12.33
2017-06-22T15:55:04.509Z,13.03
2017-06-22T15:57:33.641Z,13.23
2017-06-22T16:00:03.711Z,12.83
2017-06-22T16:02:33.352Z,14.57
2017-06-22T16:05:03.248Z,13.33
2017-06-22T16:07:32.926Z,10.60
2017-06-22T16:10:02.665Z,10.43
2017-06-22T16:12:32.865Z,11.07
2017-06-22T16:15:02.287Z,11.60
2017-06-22T16:17:31.664Z,12.47
2017-06-22T16:20:01.640Z,11.03
2017-06-22T16:22:31.419Z,10.17
2017-06-22T16:25:01.698Z,11.60
2017-06-22T16:27:31.824Z,10.20
2017-06-22T16:30:01.956Z,9.70
2017-06-22T16:32:32.780Z,10.10
2017-06-22T16:35:03.002Z,9.80
2017-06-22T16:37:33.749Z,10.27
2017-06-22T16:40:03.885Z,10.67
2017-06-22T16:42:35.284Z,12.57
2017-06-22T16:45:05.193Z,11.37
2017-06-22T16:47:34.311Z,11.40
2017-06-22T16:50:04.418Z,11.60
2017-06-22T16:52:34.515Z,12.30
2017-06-22T16:55:03.930Z,11.00
2017-06-22T16:57:33.060Z,12.70
2017-06-22T17:00:02.552Z,10.63
2017-06-22T17:02:31.856Z,10.83
2017-06-22T17:05:01.448Z,10.50
2017-06-22T17:07:31.087Z,9.97
2017-06-22T17:10:00.352Z,10.43
2017-06-22T17:12:30.028Z,10.27
2017-06-22T17:14:59.298Z,10.10
2017-06-22T17:17:28.873Z,10.60
2017-06-22T17:19:57.425Z,10.33
2017-06-22T17:22:26.576Z,10.63
2017-06-22T17:24:56.225Z,21.00
2017-06-22T17:27:25.607Z,16.83
2017-06-22T17:29:55.325Z,13.57
2017-06-22T17:32:24.399Z,11.83
2017-06-22T17:34:53.506Z,11.53
2017-06-22T17:37:22.439Z,9.63
2017-06-22T17:39:51.796Z,10.70
2017-06-22T17:42:20.344Z,10.97
2017-06-22T17:44:49.292Z,11.10
2017-06-22T17:47:18.608Z,10.00
2017-06-22T17:49:48.246Z,10.67
2017-06-22T17:52:18.113Z,12.90
2017-06-22T17:54:47.718Z,10.73
2017-06-22T17:57:17.930Z,11.30
2017-06-22T17:59:47.408Z,9.83
2017-06-22T18:02:16.246Z,10.93
2017-06-22T18:04:45.995Z,10.50
2017-06-22T18:07:14.586Z,12.07
2017-06-22T18:09:44.060Z,9.40
2017-06-22T18:12:13.282Z,10.23
2017-06-22T18:14:42.249Z,10.77
2017-06-22T18:17:10.961Z,10.77
2017-06-22T18:19:40.201Z,10.83
2017-06-22T18:22:10.036Z,10.73
2017-06-22T18:24:39.299Z,10.27
2017-06-22T18:27:09.138Z,10.37
2017-06-22T18:29:39.055Z,10.93
2017-06-22T18:32:08.123Z,10.40
2017-06-22T18:34:37.534Z,11.07
2017-06-22T18:37:06.616Z,10.33
2017-06-22T18:39:35.593Z,11.00
2017-06-22T18:42:04.233Z,10.53
2017-06-22T18:44:33.250Z,11.23
2017-06-22T18:47:01.540Z,10.30
2017-06-22T18:49:30.297Z,10.47
2017-06-22T18:51:58.513Z,11.50
2017-06-22T18:54:27.010Z,14.23
2017-06-22T18:56:56.548Z,11.93
2017-06-22T18:59:25.964Z,11.97
2017-06-22T19:01:56.316Z,12.07
2017-06-22T19:04:24.643Z,12.33
2017-06-22T19:06:52.122Z,12.43
2017-06-22T19:09:20.053Z,12.17
2017-06-22T19:11:47.549Z,12.00
2017-06-22T19:14:15.008Z,12.10
2017-06-22T19:16:42.487Z,12.60
2017-06-22T19:19:10.519Z,13.50
2017-06-22T19:21:37.997Z,12.10
2017-06-22T19:24:05.461Z,14.67
2017-06-22T19:26:33.018Z,10.47
2017-06-22T19:29:00.482Z,11.60
2017-06-22T19:31:28.758Z,10.90
2017-06-22T19:33:56.255Z,12.40
2017-06-22T19:36:24.138Z,11.43
2017-06-22T19:38:51.998Z,11.87
2017-06-22T19:41:19.950Z,11.40
2017-06-22T19:43:47.407Z,11.70
2017-06-22T19:46:14.897Z,11.70
2017-06-22T19:48:42.795Z,13.20
2017-06-22T19:51:10.254Z,13.63
2017-06-22T19:53:37.747Z,14.70
2017-06-22T19:56:05.324Z,12.83
2017-06-22T19:58:32.803Z,12.60
2017-06-22T20:01:00.256Z,14.67
2017-06-22T20:03:27.773Z,12.70
2017-06-22T20:05:55.238Z,13.00
2017-06-22T20:08:22.701Z,12.93
2017-06-22T20:10:50.385Z,13.93
2017-06-22T20:13:17.838Z,13.87
2017-06-22T20:15:45.315Z,13.20
2017-06-22T20:18:12.822Z,16.77
2017-06-22T20:20:40.704Z,36.93
2017-06-22T20:23:08.269Z,23.27
2017-06-22T20:25:36.137Z,17.13
2017-06-22T20:28:04.047Z,14.37
2017-06-22T20:30:31.553Z,14.00
2017-06-22T20:32:59.042Z,14.63
2017-06-22T20:35:26.529Z,14.80
2017-06-22T20:37:54.048Z,14.97
2017-06-22T20:40:22.427Z,16.90
2017-06-22T20:42:49.886Z,16.27
2017-06-22T20:45:17.388Z,14.93
2017-06-22T20:47:44.888Z,16.93
2017-06-22T20:50:12.341Z,15.40
2017-06-22T20:52:39.838Z,16.23
2017-06-22T20:55:07.361Z,15.83
2017-06-22T20:57:34.828Z,16.17
2017-06-22T21:00:02.317Z,16.37
2017-06-22T21:02:29.820Z,15.30
2017-06-22T21:04:57.327Z,14.50
2017-06-22T21:07:26.669Z,18.30
2017-06-22T21:09:54.581Z,16.13
2017-06-22T21:12:22.083Z,15.60
2017-06-22T21:14:49.553Z,15.83
2017-06-22T21:17:17.081Z,14.87
2017-06-22T21:19:44.551Z,15.00
2017-06-22T21:22:12.022Z,14.90
2017-06-22T21:24:39.533Z,17.60
2017-06-22T21:27:07.003Z,15.63
2017-06-22T21:29:34.471Z,15.70
2017-06-22T21:32:01.960Z,15.57
2017-06-22T21:34:29.447Z,14.70
2017-06-22T21:36:56.917Z,16.23
2017-06-22T21:39:24.383Z,14.17
2017-06-22T21:41:52.283Z,18.67
2017-06-22T21:44:20.124Z,20.73
2017-06-22T21:46:47.988Z,19.23
2017-06-22T21:49:15.973Z,14.27
2017-06-22T21:51:43.863Z,14.93
2017-06-22T21:54:11.379Z,16.97
2017-06-22T21:56:38.896Z,18.53
2017-06-22T21:59:06.755Z,17.60
2017-06-22T22:01:34.654Z,18.20
2017-06-22T22:04:02.136Z,14.43
2017-06-22T22:06:29.615Z,14.43
2017-06-22T22:08:57.126Z,14.93
2017-06-22T22:11:24.593Z,16.43
2017-06-22T22:13:52.055Z,16.83
2017-06-22T22:16:19.891Z,19.10
2017-06-22T22:18:47.342Z,15.50
2017-06-22T22:21:14.804Z,16.40
2017-06-22T22:23:42.598Z,17.83
2017-06-22T22:26:10.440Z,15.83
2017-06-22T22:28:37.918Z,16.07
2017-06-22T22:31:05.429Z,25.43
2017-06-22T22:33:32.892Z,17.30
2017-06-22T22:36:00.372Z,17.33
2017-06-22T22:38:27.872Z,18.23
2017-06-22T22:40:55.745Z,17.97
2017-06-22T22:43:23.609Z,15.37
2017-06-22T22:45:51.213Z,16.00
2017-06-22T22:48:18.712Z,16.90
2017-06-22T22:50:46.167Z,19.83
2017-06-22T22:53:13.649Z,18.20
2017-06-22T22:55:41.116Z,17.73
2017-06-22T22:58:08.625Z,22.83
2017-06-22T23:00:36.092Z,19.40
2017-06-22T23:03:05.098Z,18.63
2017-06-22T23:05:32.619Z,32.70
2017-06-22T23:08:00.469Z,18.43
2017-06-22T23:10:27.939Z,17.73
2017-06-22T23:12:55.418Z,17.30
2017-06-22T23:15:23.281Z,18.60
2017-06-22T23:17:50.992Z,18.13
2017-06-22T23:20:18.455Z,17.07
2017-06-22T23:22:45.908Z,19.23
2017-06-22T23:25:13.415Z,22.50
2017-06-22T23:27:40.885Z,15.57
2017-06-22T23:30:08.348Z,17.00
2017-06-22T23:32:35.876Z,18.43
2017-06-22T23:35:03.884Z,16.00
2017-06-22T23:37:31.453Z,17.20
2017-06-22T23:39:58.932Z,17.80
2017-06-22T23:42:26.806Z,21.03
2017-06-22T23:44:54.684Z,13.37
2017-06-22T23:47:22.144Z,21.23
2017-06-22T23:49:50.054Z,18.73
2017-06-22T23:52:17.510Z,17.50
2017-06-22T23:54:44.965Z,18.30
2017-06-22T23:57:12.456Z,14.60
2017-06-22T23:59:39.944Z,14.20
